Time;durP1;ratioP1;P1;durP2;ratioP2;P2;SDS_P1;SDS_P2;PMS_P1;PMS_P2;Temp;Humidity;BMP_temperature;BMP_pressure;BME280_temperature;BME280_humidity;BME280_pressure;Samples;Min_cycle;Max_cycle;Signal;HPM_P1;HPM_P2
2022/09/12 00:01:12;;;;;;;;;;;13.80;99.90;;;;;;5038780;28;19920;-34
2022/09/12 00:03:38;;;;;;;;;;;13.70;99.90;;;;;;5073303;28;19931;-34
2022/09/12 00:06:12;;;;;;;;;;;13.70;99.90;;;;;;5066338;28;20361;-34
2022/09/12 00:08:37;;;;;;;;;;;13.60;99.90;;;;;;5047488;28;20372;-34
2022/09/12 00:11:04;;;;;;;;;;;13.60;99.90;;;;;;5055553;28;19920;-33
2022/09/12 00:13:29;;;;;;;;;;;13.60;99.90;;;;;;5054581;28;20149;-34
2022/09/12 00:15:55;;;;;;;;;;;13.60;99.90;;;;;;5055643;28;20339;-34
2022/09/12 00:18:20;;;;;;;;;;;13.60;99.90;;;;;;5055032;28;19916;-33
2022/09/12 00:20:46;;;;;;;;;;;13.50;99.90;;;;;;5068093;28;19920;-34
2022/09/12 00:23:12;;;;;;;;;;;13.50;99.90;;;;;;5055435;28;19966;-33
2022/09/12 00:25:45;;;;;;;;;;;13.50;99.90;;;;;;5057067;28;19920;-33
2022/09/12 00:28:11;;;;;;;;;;;13.40;99.90;;;;;;5063255;28;20008;-34
2022/09/12 00:30:41;;;;;;;;;;;13.40;99.90;;;;;;5029691;28;19978;-34
2022/09/12 00:33:06;;;;;;;;;;;13.40;99.90;;;;;;5057812;28;19916;-33
2022/09/12 00:35:32;;;;;;;;;;;13.40;99.90;;;;;;5059990;28;20387;-33
2022/09/12 00:37:58;;;;;;;;;;;13.30;99.90;;;;;;5038342;28;19920;-34
2022/09/12 00:40:23;;;;;;;;;;;13.30;99.90;;;;;;5054855;28;19939;-30
2022/09/12 00:42:49;;;;;;;;;;;13.30;99.90;;;;;;5054328;28;19920;-31
2022/09/12 00:45:20;;;;;;;;;;;13.30;99.90;;;;;;5072544;28;19916;-33
2022/09/12 00:47:46;;;;;;;;;;;13.20;99.90;;;;;;5068530;28;19959;-33
2022/09/12 00:50:13;;;;;;;;;;;13.20;99.90;;;;;;5054803;28;19967;-34
2022/09/12 00:52:46;;;;;;;;;;;13.20;99.90;;;;;;5054479;28;19916;-34
2022/09/12 00:55:17;;;;;;;;;;;13.20;99.90;;;;;;5054694;28;19924;-34
2022/09/12 00:57:49;;;;;;;;;;;13.20;99.90;;;;;;5048734;28;19923;-34
2022/09/12 01:00:16;;;;;;;;;;;13.20;99.90;;;;;;5052624;28;19917;-34
2022/09/12 01:02:47;;;;;;;;;;;13.10;99.90;;;;;;5053770;28;20295;-33
2022/09/12 01:05:14;;;;;;;;;;;13.10;99.90;;;;;;5045620;28;20003;-33
2022/09/12 01:07:39;;;;;;;;;;;13.10;99.90;;;;;;5045385;28;19921;-33
2022/09/12 01:10:06;;;;;;;;;;;13.10;99.90;;;;;;5052769;28;19924;-33
2022/09/12 01:12:33;;;;;;;;;;;13.00;99.90;;;;;;5054229;28;20316;-33
2022/09/12 01:14:58;;;;;;;;;;;13.00;99.90;;;;;;5054340;28;20007;-33
2022/09/12 01:17:28;;;;;;;;;;;13.00;99.90;;;;;;5054472;28;20012;-34
2022/09/12 01:20:06;;;;;;;;;;;13.00;99.90;;;;;;5052412;28;19955;-35
2022/09/12 01:22:35;;;;;;;;;;;13.00;99.90;;;;;;5051756;28;19916;-33
2022/09/12 01:25:04;;;;;;;;;;;13.00;99.90;;;;;;5062276;28;19923;-33
2022/09/12 01:27:42;;;;;;;;;;;13.00;99.90;;;;;;5054681;28;19924;-33
2022/09/12 01:30:14;;;;;;;;;;;12.90;99.90;;;;;;5054234;28;20366;-33
2022/09/12 01:32:58;;;;;;;;;;;12.90;99.90;;;;;;5053844;28;19928;-33
2022/09/12 01:35:43;;;;;;;;;;;12.90;99.90;;;;;;5052397;28;20016;-33
2022/09/12 01:38:20;;;;;;;;;;;12.90;99.90;;;;;;5053014;28;19923;-33
2022/09/12 01:40:54;;;;;;;;;;;12.90;99.90;;;;;;5071653;28;19963;-33
2022/09/12 01:43:30;;;;;;;;;;;12.90;99.90;;;;;;5053335;28;19995;-34
2022/09/12 01:46:25;;;;;;;;;;;12.90;99.90;;;;;;5054203;28;19916;-33
2022/09/12 01:48:56;;;;;;;;;;;12.80;99.90;;;;;;4988828;28;19922;-33
2022/09/12 01:51:28;;;;;;;;;;;12.80;99.90;;;;;;5054668;28;20403;-33
2022/09/12 01:54:05;;;;;;;;;;;12.80;99.90;;;;;;5053777;28;20413;-35
2022/09/12 01:56:33;;;;;;;;;;;12.80;99.90;;;;;;5036942;28;19917;-34
2022/09/12 01:59:05;;;;;;;;;;;12.70;99.90;;;;;;5053809;28;19924;-34
2022/09/12 02:01:32;;;;;;;;;;;12.70;99.90;;;;;;5048762;28;20313;-32
2022/09/12 02:04:17;;;;;;;;;;;12.70;99.90;;;;;;5054952;28;19916;-32
2022/09/12 02:06:46;;;;;;;;;;;12.70;99.90;;;;;;5054191;28;19917;-31
2022/09/12 02:09:22;;;;;;;;;;;12.70;99.90;;;;;;5057615;28;19953;-31
2022/09/12 02:11:51;;;;;;;;;;;12.70;99.90;;;;;;5060780;28;19917;-31
2022/09/12 02:14:19;;;;;;;;;;;12.70;99.90;;;;;;5053509;28;19923;-32
2022/09/12 02:16:49;;;;;;;;;;;12.70;99.90;;;;;;5051812;28;20007;-33
2022/09/12 02:19:18;;;;;;;;;;;12.70;99.90;;;;;;5056080;28;19923;-32
2022/09/12 02:21:52;;;;;;;;;;;12.70;99.90;;;;;;5059812;28;19924;-31
2022/09/12 02:24:19;;;;;;;;;;;12.70;99.90;;;;;;5056637;28;19923;-31
2022/09/12 02:26:55;;;;;;;;;;;12.70;99.90;;;;;;5057668;28;19916;-33
2022/09/12 02:29:21;;;;;;;;;;;12.70;99.90;;;;;;5053225;28;19920;-32
2022/09/12 02:31:48;;;;;;;;;;;12.70;99.90;;;;;;5036731;28;19917;-30
2022/09/12 02:34:48;;;;;;;;;;;12.60;99.90;;;;;;5071207;28;19917;-33
2022/09/12 02:37:14;;;;;;;;;;;12.70;99.90;;;;;;5043657;28;19952;-31
2022/09/12 02:39:39;;;;;;;;;;;12.60;99.90;;;;;;5057143;28;20387;-32
2022/09/12 02:42:05;;;;;;;;;;;12.60;99.90;;;;;;5053555;28;19932;-33
2022/09/12 02:44:32;;;;;;;;;;;12.60;99.90;;;;;;5054142;28;20293;-31
2022/09/12 02:47:14;;;;;;;;;;;12.60;99.90;;;;;;5057051;28;19916;-31
2022/09/12 02:49:39;;;;;;;;;;;12.60;99.90;;;;;;5067844;28;20308;-32
2022/09/12 02:52:05;;;;;;;;;;;12.50;99.90;;;;;;5051283;28;20015;-32
2022/09/12 02:54:31;;;;;;;;;;;12.50;99.90;;;;;;5055310;28;19964;-32
2022/09/12 02:56:57;;;;;;;;;;;12.50;99.90;;;;;;5043549;28;19924;-31
2022/09/12 02:59:23;;;;;;;;;;;12.50;99.90;;;;;;5047931;28;19977;-32
2022/09/12 03:01:57;;;;;;;;;;;12.50;99.90;;;;;;5056657;28;20335;-31
2022/09/12 03:04:26;;;;;;;;;;;12.50;99.90;;;;;;5032293;28;19916;-33
2022/09/12 03:07:24;;;;;;;;;;;12.40;99.90;;;;;;5053715;28;20308;-31
2022/09/12 03:09:53;;;;;;;;;;;12.40;99.90;;;;;;5022701;28;19924;-31
2022/09/12 03:12:27;;;;;;;;;;;12.40;99.90;;;;;;5056192;28;19916;-32
2022/09/12 03:14:52;;;;;;;;;;;12.40;99.90;;;;;;5056743;28;20483;-32
2022/09/12 03:17:25;;;;;;;;;;;12.30;99.90;;;;;;5056536;28;19995;-31
2022/09/12 03:19:59;;;;;;;;;;;12.30;99.90;;;;;;5074423;28;19924;-31
2022/09/12 03:22:25;;;;;;;;;;;12.30;99.90;;;;;;5066342;28;20381;-31
2022/09/12 03:24:54;;;;;;;;;;;12.20;99.90;;;;;;5052451;28;19967;-31
2022/09/12 03:27:26;;;;;;;;;;;12.20;99.90;;;;;;5055253;28;19928;-31
2022/09/12 03:29:52;;;;;;;;;;;12.20;99.90;;;;;;5059414;28;20015;-32
2022/09/12 03:32:18;;;;;;;;;;;12.10;99.90;;;;;;5056235;28;19923;-31
2022/09/12 03:34:44;;;;;;;;;;;12.10;99.90;;;;;;5050728;28;20262;-31
2022/09/12 03:37:09;;;;;;;;;;;12.10;99.90;;;;;;5038969;28;19924;-31
2022/09/12 03:39:35;;;;;;;;;;;12.10;99.90;;;;;;5051312;28;19917;-32
2022/09/12 03:42:00;;;;;;;;;;;12.10;99.90;;;;;;5055250;28;19920;-33
2022/09/12 03:44:26;;;;;;;;;;;12.10;99.90;;;;;;5073959;28;19966;-32
2022/09/12 03:46:52;;;;;;;;;;;12.00;99.90;;;;;;5054907;28;19967;-31
2022/09/12 03:49:17;;;;;;;;;;;12.00;99.90;;;;;;5055544;28;19927;-33
2022/09/12 03:51:43;;;;;;;;;;;12.00;99.90;;;;;;5055586;28;19917;-33
2022/09/12 03:54:09;;;;;;;;;;;12.00;99.90;;;;;;5055868;28;20007;-34
2022/09/12 03:56:36;;;;;;;;;;;12.00;99.90;;;;;;5056054;28;19970;-33
2022/09/12 03:59:04;;;;;;;;;;;12.00;99.90;;;;;;5038907;28;20328;-33
2022/09/12 04:01:29;;;;;;;;;;;11.90;99.90;;;;;;5052246;28;20488;-34
2022/09/12 04:03:55;;;;;;;;;;;11.90;99.90;;;;;;5049593;28;20025;-34
2022/09/12 04:06:21;;;;;;;;;;;11.90;99.90;;;;;;5051109;28;20408;-30
2022/09/12 04:08:47;;;;;;;;;;;11.90;99.90;;;;;;5038820;28;19965;-30
2022/09/12 04:11:14;;;;;;;;;;;11.90;99.90;;;;;;5053289;28;19951;-30
2022/09/12 04:13:40;;;;;;;;;;;11.80;99.90;;;;;;5054908;28;20373;-31
2022/09/12 04:16:09;;;;;;;;;;;11.80;99.90;;;;;;5055118;28;19928;-31
2022/09/12 04:18:35;;;;;;;;;;;11.80;99.90;;;;;;5049069;28;19922;-32
2022/09/12 04:21:05;;;;;;;;;;;11.80;99.90;;;;;;5042232;28;19920;-31
2022/09/12 04:23:31;;;;;;;;;;;11.80;99.90;;;;;;5045052;28;19924;-32
2022/09/12 04:25:57;;;;;;;;;;;11.80;99.90;;;;;;5053004;28;19916;-31
2022/09/12 04:28:24;;;;;;;;;;;11.80;99.90;;;;;;5060256;28;19916;-31
2022/09/12 04:30:49;;;;;;;;;;;11.80;99.90;;;;;;5054670;28;19924;-31
2022/09/12 04:33:15;;;;;;;;;;;11.80;99.90;;;;;;5062570;28;19920;-31
2022/09/12 04:35:41;;;;;;;;;;;11.80;99.90;;;;;;5055019;28;20370;-32
2022/09/12 04:38:07;;;;;;;;;;;11.90;99.90;;;;;;5054729;28;19923;-32
2022/09/12 04:40:33;;;;;;;;;;;11.90;99.90;;;;;;5056735;28;19916;-30
2022/09/12 04:42:58;;;;;;;;;;;11.90;99.90;;;;;;5059960;28;19947;-31
2022/09/12 04:45:24;;;;;;;;;;;12.00;99.90;;;;;;5053596;28;19939;-31
2022/09/12 04:47:50;;;;;;;;;;;12.10;99.90;;;;;;5055775;28;19920;-31
2022/09/12 04:50:16;;;;;;;;;;;12.10;99.90;;;;;;5036415;28;19920;-33
2022/09/12 04:52:41;;;;;;;;;;;12.20;99.90;;;;;;5032423;28;19923;-31
2022/09/12 04:55:07;;;;;;;;;;;12.20;99.90;;;;;;5054799;28;19938;-31
2022/09/12 04:57:33;;;;;;;;;;;12.20;99.90;;;;;;5054517;28;19916;-32
2022/09/12 05:00:00;;;;;;;;;;;12.20;99.90;;;;;;5038069;28;19924;-32
2022/09/12 05:02:25;;;;;;;;;;;12.30;99.90;;;;;;5053884;28;20389;-32
2022/09/12 05:04:51;;;;;;;;;;;12.30;99.90;;;;;;5046421;28;19946;-32
2022/09/12 05:07:18;;;;;;;;;;;12.40;99.90;;;;;;5037594;28;20373;-32
2022/09/12 05:09:44;;;;;;;;;;;12.40;99.90;;;;;;5050654;28;20062;-32
2022/09/12 05:12:10;;;;;;;;;;;12.40;99.90;;;;;;5031058;28;19956;-32
2022/09/12 05:14:36;;;;;;;;;;;12.40;99.90;;;;;;5071639;28;19927;-32
2022/09/12 05:17:03;;;;;;;;;;;12.50;99.90;;;;;;5030383;28;20344;-32
2022/09/12 05:19:29;;;;;;;;;;;12.50;99.90;;;;;;5048940;28;20011;-31
2022/09/12 05:21:55;;;;;;;;;;;12.60;99.90;;;;;;5043745;28;20270;-31
2022/09/12 05:24:20;;;;;;;;;;;12.60;99.90;;;;;;5050406;28;20015;-31
2022/09/12 05:26:46;;;;;;;;;;;12.60;99.90;;;;;;5046171;28;19917;-34
2022/09/12 05:29:12;;;;;;;;;;;12.70;99.90;;;;;;5048066;28;19916;-36
2022/09/12 05:31:38;;;;;;;;;;;12.80;99.90;;;;;;5053294;28;19917;-34
2022/09/12 05:34:05;;;;;;;;;;;12.80;99.90;;;;;;5053105;28;19970;-34
2022/09/12 05:36:31;;;;;;;;;;;12.90;99.90;;;;;;5053181;28;19969;-34
2022/09/12 05:38:58;;;;;;;;;;;12.90;99.90;;;;;;5071203;28;19920;-35
2022/09/12 05:41:29;;;;;;;;;;;13.00;99.90;;;;;;5053689;28;20381;-36
2022/09/12 05:43:56;;;;;;;;;;;13.10;99.90;;;;;;5052265;28;19931;-34
2022/09/12 05:46:24;;;;;;;;;;;13.10;99.90;;;;;;5051620;28;20411;-34
2022/09/12 05:48:50;;;;;;;;;;;13.20;99.90;;;;;;5052732;28;19927;-34
2022/09/12 05:51:18;;;;;;;;;;;13.30;99.90;;;;;;5046876;28;19921;-36
2022/09/12 05:53:44;;;;;;;;;;;13.40;99.90;;;;;;5051903;28;20396;-36
2022/09/12 05:56:11;;;;;;;;;;;13.40;99.90;;;;;;5051312;28;19927;-36
2022/09/12 05:58:38;;;;;;;;;;;13.40;99.90;;;;;;5052581;28;20280;-36
2022/09/12 06:01:04;;;;;;;;;;;13.50;99.90;;;;;;5051998;28;20358;-37
2022/09/12 06:03:30;;;;;;;;;;;13.50;99.90;;;;;;5052460;28;19939;-34
2022/09/12 06:05:56;;;;;;;;;;;13.60;99.90;;;;;;5053041;28;19916;-34
2022/09/12 06:08:21;;;;;;;;;;;13.60;99.90;;;;;;5050474;28;20011;-36
2022/09/12 06:10:48;;;;;;;;;;;13.70;99.90;;;;;;5047563;28;20039;-35
2022/09/12 06:13:13;;;;;;;;;;;13.80;99.90;;;;;;5057095;28;19963;-34
2022/09/12 06:15:39;;;;;;;;;;;13.80;99.90;;;;;;5056534;28;20426;-36
2022/09/12 06:18:05;;;;;;;;;;;13.80;99.90;;;;;;5054774;28;20006;-37
2022/09/12 06:20:30;;;;;;;;;;;13.90;99.90;;;;;;5055110;28;19917;-34
2022/09/12 06:22:56;;;;;;;;;;;14.00;99.90;;;;;;5036618;28;20304;-34
2022/09/12 06:25:21;;;;;;;;;;;14.00;99.90;;;;;;5056768;28;19917;-34
2022/09/12 06:27:47;;;;;;;;;;;14.00;99.90;;;;;;5056406;28;19966;-34
2022/09/12 06:30:13;;;;;;;;;;;14.10;99.90;;;;;;5072181;28;19960;-34
2022/09/12 06:32:38;;;;;;;;;;;14.20;99.90;;;;;;5057252;28;19916;-35
2022/09/12 06:35:04;;;;;;;;;;;14.20;99.90;;;;;;5057065;28;19952;-35
2022/09/12 06:37:31;;;;;;;;;;;14.20;99.90;;;;;;5053280;28;19924;-36
2022/09/12 06:39:57;;;;;;;;;;;14.30;99.90;;;;;;5050190;28;20439;-34
2022/09/12 06:42:22;;;;;;;;;;;14.40;99.90;;;;;;5053895;28;19920;-34
2022/09/12 06:44:49;;;;;;;;;;;14.40;99.90;;;;;;5056493;28;20046;-35
2022/09/12 06:47:14;;;;;;;;;;;14.50;99.90;;;;;;5039821;28;19923;-34
2022/09/12 06:49:40;;;;;;;;;;;14.50;99.90;;;;;;5051933;28;20145;-37
2022/09/12 06:52:06;;;;;;;;;;;14.60;99.90;;;;;;5052486;28;19939;-35
2022/09/12 06:54:31;;;;;;;;;;;14.70;99.90;;;;;;5055817;28;19916;-34
2022/09/12 06:56:57;;;;;;;;;;;14.70;99.90;;;;;;5056092;28;19916;-36
2022/09/12 06:59:23;;;;;;;;;;;14.80;99.90;;;;;;5055699;28;19924;-36
2022/09/12 07:01:49;;;;;;;;;;;14.80;99.90;;;;;;5056389;28;19916;-35
2022/09/12 07:04:15;;;;;;;;;;;14.80;99.90;;;;;;5054834;28;20289;-34
2022/09/12 07:06:42;;;;;;;;;;;14.90;99.90;;;;;;5056374;28;19986;-37
2022/09/12 07:09:09;;;;;;;;;;;15.00;99.90;;;;;;5051332;28;19917;-35
2022/09/12 07:11:36;;;;;;;;;;;15.00;99.90;;;;;;5053535;28;19971;-36
2022/09/12 07:14:03;;;;;;;;;;;15.10;99.90;;;;;;5052247;28;19970;-35
2022/09/12 07:16:33;;;;;;;;;;;15.20;99.90;;;;;;5023561;28;19923;-34
2022/09/12 07:19:00;;;;;;;;;;;15.20;99.90;;;;;;5044145;28;20408;-34
2022/09/12 07:21:26;;;;;;;;;;;15.30;99.90;;;;;;5055545;28;20019;-34
2022/09/12 07:23:54;;;;;;;;;;;15.30;99.90;;;;;;5051178;28;19920;-34
2022/09/12 07:26:19;;;;;;;;;;;15.40;99.90;;;;;;5048125;28;19923;-35
2022/09/12 07:28:49;;;;;;;;;;;15.50;99.90;;;;;;5052348;28;20374;-37
2022/09/12 07:31:16;;;;;;;;;;;15.60;99.90;;;;;;5051403;28;19920;-34
2022/09/12 07:33:42;;;;;;;;;;;15.60;99.90;;;;;;5055688;28;19916;-34
2022/09/12 07:36:15;;;;;;;;;;;15.60;99.90;;;;;;5055554;28;19917;-34
2022/09/12 07:38:41;;;;;;;;;;;15.80;99.90;;;;;;5052887;28;20361;-35
2022/09/12 07:41:17;;;;;;;;;;;15.90;99.90;;;;;;5044866;28;20281;-34
2022/09/12 07:43:43;;;;;;;;;;;15.90;99.90;;;;;;5042145;28;19924;-34
2022/09/12 07:46:08;;;;;;;;;;;16.00;99.90;;;;;;5040599;28;20271;-36
2022/09/12 07:48:34;;;;;;;;;;;16.10;99.90;;;;;;5037830;28;19923;-35
2022/09/12 07:51:03;;;;;;;;;;;16.20;99.90;;;;;;5052070;28;19924;-34
2022/09/12 07:53:33;;;;;;;;;;;16.30;99.90;;;;;;5071013;28;20007;-34
2022/09/12 07:55:58;;;;;;;;;;;16.50;99.90;;;;;;5073367;28;19917;-35
2022/09/12 07:58:24;;;;;;;;;;;16.60;99.90;;;;;;5069005;28;20281;-40
2022/09/12 08:00:50;;;;;;;;;;;16.70;99.90;;;;;;5061239;28;19999;-37
2022/09/12 08:03:16;;;;;;;;;;;16.80;99.90;;;;;;5051991;28;19923;-34
2022/09/12 08:05:42;;;;;;;;;;;16.80;99.90;;;;;;5055679;28;20423;-35
2022/09/12 08:08:07;;;;;;;;;;;16.70;99.90;;;;;;5054590;28;19916;-35
2022/09/12 08:10:33;;;;;;;;;;;16.80;99.90;;;;;;5055403;28;19983;-34
2022/09/12 08:12:59;;;;;;;;;;;16.80;99.90;;;;;;5055725;28;19962;-35
2022/09/12 08:15:24;;;;;;;;;;;16.90;99.90;;;;;;5033765;28;20277;-35
2022/09/12 08:17:50;;;;;;;;;;;16.90;99.90;;;;;;5055167;28;19928;-34
2022/09/12 08:20:16;;;;;;;;;;;17.00;99.90;;;;;;5053140;28;20373;-38
2022/09/12 08:22:43;;;;;;;;;;;17.10;99.90;;;;;;5054715;28;19970;-35
2022/09/12 08:25:08;;;;;;;;;;;17.20;99.90;;;;;;5051261;28;19920;-37
2022/09/12 08:27:34;;;;;;;;;;;17.20;99.90;;;;;;5037193;28;19924;-35
2022/09/12 08:30:00;;;;;;;;;;;17.30;99.90;;;;;;5045735;28;20289;-36
2022/09/12 08:32:26;;;;;;;;;;;17.30;99.90;;;;;;5055296;28;19924;-35
2022/09/12 08:34:51;;;;;;;;;;;17.40;99.90;;;;;;5055682;28;20333;-34
2022/09/12 08:37:17;;;;;;;;;;;17.40;99.90;;;;;;5055577;28;19916;-34
2022/09/12 08:39:43;;;;;;;;;;;17.50;99.90;;;;;;5056026;28;19939;-36
2022/09/12 08:42:09;;;;;;;;;;;17.60;99.90;;;;;;5037859;28;19966;-36
2022/09/12 08:45:01;;;;;;;;;;;17.60;99.90;;;;;;5048231;28;19917;-35
2022/09/12 08:47:32;;;;;;;;;;;17.70;99.90;;;;;;5051204;28;19916;-37
2022/09/12 08:49:58;;;;;;;;;;;17.90;99.90;;;;;;5055114;28;19949;-35
2022/09/12 08:52:30;;;;;;;;;;;18.00;99.90;;;;;;5051977;28;19931;-35
2022/09/12 08:54:56;;;;;;;;;;;18.20;99.90;;;;;;5049842;28;20265;-35
2022/09/12 08:57:23;;;;;;;;;;;18.50;99.90;;;;;;5048856;28;20285;-37
2022/09/12 08:59:49;;;;;;;;;;;18.70;99.90;;;;;;5038439;28;19947;-35
2022/09/12 09:02:30;;;;;;;;;;;19.00;99.90;;;;;;5054886;28;20346;-37
2022/09/12 09:05:16;;;;;;;;;;;19.30;99.90;;;;;;5054577;28;19924;-35
2022/09/12 09:08:03;;;;;;;;;;;19.50;99.90;;;;;;5051646;28;19923;-37
2022/09/12 09:10:41;;;;;;;;;;;19.60;99.90;;;;;;5052110;28;20011;-32
2022/09/12 09:14:46;;;;;;;;;;;19.90;99.90;;;;;;5052223;28;20463;-32
2022/09/12 09:16:09;;;;;;;;;;;20.10;99.90;;;;;;5052893;28;20003;-32
2022/09/12 09:18:35;;;;;;;;;;;20.20;99.90;;;;;;5051965;28;19942;-36
2022/09/12 09:21:05;;;;;;;;;;;20.30;99.90;;;;;;5052969;28;19939;-33
2022/09/12 09:23:41;;;;;;;;;;;20.60;99.90;;;;;;5055282;28;19924;-34
2022/09/12 09:26:07;;;;;;;;;;;20.80;99.90;;;;;;5073279;28;19916;-33
2022/09/12 09:28:48;;;;;;;;;;;20.90;99.90;;;;;;5055351;28;19924;-33
2022/09/12 09:31:15;;;;;;;;;;;20.90;99.90;;;;;;5054897;28;20015;-33
2022/09/12 09:33:41;;;;;;;;;;;20.90;99.90;;;;;;5072962;28;19917;-34
2022/09/12 09:36:25;;;;;;;;;;;20.80;99.90;;;;;;5054933;28;19923;-32
2022/09/12 09:38:59;;;;;;;;;;;20.90;99.90;;;;;;5037862;28;19920;-33
2022/09/12 09:41:25;;;;;;;;;;;21.10;99.90;;;;;;5054026;28;19958;-32
2022/09/12 09:43:51;;;;;;;;;;;21.40;99.90;;;;;;5056211;28;19927;-32
2022/09/12 09:46:17;;;;;;;;;;;21.50;99.90;;;;;;5066483;28;19920;-33
2022/09/12 09:48:47;;;;;;;;;;;21.70;99.90;;;;;;5041922;28;19956;-33
2022/09/12 09:51:15;;;;;;;;;;;22.00;99.90;;;;;;5034828;28;19928;-34
2022/09/12 09:53:49;;;;;;;;;;;22.40;99.90;;;;;;5018010;28;19964;-33
2022/09/12 09:56:25;;;;;;;;;;;22.60;99.90;;;;;;5051843;28;19924;-33
2022/09/12 09:58:50;;;;;;;;;;;22.80;99.90;;;;;;5051964;28;19920;-33
2022/09/12 10:01:17;;;;;;;;;;;23.30;99.90;;;;;;5038204;28;19916;-33
2022/09/12 10:03:51;;;;;;;;;;;23.80;99.90;;;;;;5055569;28;19970;-33
2022/09/12 10:06:22;;;;;;;;;;;24.00;99.90;;;;;;5055970;28;19960;-33
2022/09/12 10:08:48;;;;;;;;;;;24.00;99.90;;;;;;5072558;28;20274;-34
2022/09/12 10:11:14;;;;;;;;;;;23.60;99.90;;;;;;5072278;28;19920;-33
2022/09/12 10:13:49;;;;;;;;;;;23.80;99.90;;;;;;5070753;28;19920;-34
2022/09/12 10:16:19;;;;;;;;;;;24.00;99.90;;;;;;5073420;28;19916;-33
2022/09/12 10:18:52;;;;;;;;;;;23.80;99.90;;;;;;5073326;22;19974;-87
2022/09/12 10:21:26;;;;;;;;;;;23.70;99.90;;;;;;5035790;28;19992;-86
2022/09/12 10:24:04;;;;;;;;;;;24.00;99.90;;;;;;5059112;28;19917;-80
2022/09/12 10:26:35;;;;;;;;;;;24.30;99.90;;;;;;5073612;22;19920;-80
2022/09/12 10:29:24;;;;;;;;;;;24.60;99.90;;;;;;5077475;28;20003;-82
2022/09/12 10:31:54;;;;;;;;;;;24.90;99.90;;;;;;5074265;28;20331;-81
2022/09/12 10:34:33;;;;;;;;;;;25.30;99.90;;;;;;5074624;28;20581;-81
2022/09/12 10:37:06;;;;;;;;;;;25.60;99.90;;;;;;5077979;28;19930;-81
2022/09/12 10:39:33;;;;;;;;;;;26.00;99.90;;;;;;5078022;28;19916;-80
2022/09/12 10:41:59;;;;;;;;;;;26.20;99.90;;;;;;5079260;28;19930;-80
2022/09/12 10:44:29;;;;;;;;;;;26.60;99.90;;;;;;5065638;28;19959;-80
2022/09/12 10:46:56;;;;;;;;;;;26.70;99.20;;;;;;5096617;28;19921;-81
2022/09/12 10:49:23;;;;;;;;;;;26.50;99.90;;;;;;5079315;28;20406;-80
2022/09/12 10:51:50;;;;;;;;;;;26.20;99.90;;;;;;5079334;28;19962;-81
2022/09/12 10:54:17;;;;;;;;;;;26.50;93.90;;;;;;5080062;28;19962;-82
2022/09/12 10:56:58;;;;;;;;;;;27.00;99.90;;;;;;5080111;28;19922;-82
2022/09/12 10:59:42;;;;;;;;;;;27.10;93.90;;;;;;5083991;28;19916;-82
2022/09/12 11:02:27;;;;;;;;;;;26.90;88.00;;;;;;5077211;28;19916;-82
2022/09/12 11:04:53;;;;;;;;;;;27.00;95.70;;;;;;5072769;28;19917;-82
2022/09/12 11:07:18;;;;;;;;;;;27.30;85.30;;;;;;5071893;28;19924;-81
2022/09/12 11:09:51;;;;;;;;;;;27.60;75.00;;;;;;5079450;28;19936;-82
2022/09/12 11:12:20;;;;;;;;;;;27.60;85.20;;;;;;5076216;28;19916;-82
2022/09/12 11:14:51;;;;;;;;;;;27.90;92.50;;;;;;5068048;28;19939;-81
2022/09/12 11:17:26;;;;;;;;;;;27.90;67.80;;;;;;5083895;28;19916;-80
2022/09/12 11:20:17;;;;;;;;;;;28.00;64.00;;;;;;5068486;28;19904;-80
2022/09/12 11:22:43;;;;;;;;;;;28.20;80.80;;;;;;5088142;28;20388;-81
2022/09/12 11:25:16;;;;;;;;;;;28.40;76.00;;;;;;5071345;28;19933;-81
2022/09/12 11:27:59;;;;;;;;;;;28.70;64.80;;;;;;5066794;28;19927;-83
2022/09/12 11:30:24;;;;;;;;;;;28.90;68.40;;;;;;5057218;28;19970;-82
2022/09/12 11:33:04;;;;;;;;;;;29.30;68.10;;;;;;5075159;28;19916;-82
2022/09/12 11:35:34;;;;;;;;;;;29.50;67.40;;;;;;5075233;28;19924;-82
2022/09/12 11:38:18;;;;;;;;;;;29.60;57.70;;;;;;5061411;28;19925;-82
2022/09/12 11:40:47;;;;;;;;;;;29.40;55.90;;;;;;5059131;28;19939;-82
2022/09/12 11:43:27;;;;;;;;;;;29.50;56.50;;;;;;5075434;28;19922;-82
2022/09/12 11:45:55;;;;;;;;;;;30.10;58.50;;;;;;5073385;28;19938;-82
2022/09/12 11:48:23;;;;;;;;;;;30.40;56.80;;;;;;5061429;28;20368;-82
2022/09/12 11:50:49;;;;;;;;;;;29.70;56.30;;;;;;5078583;28;19921;-80
2022/09/12 11:53:23;;;;;;;;;;;29.10;55.90;;;;;;5074436;28;19965;-82
2022/09/12 11:55:51;;;;;;;;;;;28.70;60.50;;;;;;5051625;28;19995;-82
2022/09/12 11:58:20;;;;;;;;;;;28.50;60.20;;;;;;5065744;28;19924;-82
2022/09/12 12:00:48;;;;;;;;;;;28.60;61.90;;;;;;5065988;28;19920;-82
2022/09/12 12:03:22;;;;;;;;;;;28.80;61.50;;;;;;5063211;28;19916;-82
2022/09/12 12:05:52;;;;;;;;;;;28.80;59.10;;;;;;5078622;28;19938;-82
2022/09/12 12:08:19;;;;;;;;;;;29.20;76.80;;;;;;5068364;28;20322;-82
2022/09/12 12:10:55;;;;;;;;;;;29.60;58.00;;;;;;5058978;28;19928;-82
2022/09/12 12:13:34;;;;;;;;;;;29.70;56.10;;;;;;5065307;28;19923;-81
2022/09/12 12:16:12;;;;;;;;;;;30.00;53.20;;;;;;5090297;28;19923;-83
2022/09/12 12:18:38;;;;;;;;;;;30.30;55.50;;;;;;5113950;28;19909;-83
2022/09/12 12:21:33;;;;;;;;;;;30.80;57.40;;;;;;5107800;28;19920;-80
2022/09/12 12:24:11;;;;;;;;;;;31.30;53.00;;;;;;5054691;28;19926;-82
2022/09/12 12:26:37;;;;;;;;;;;31.10;52.80;;;;;;5079443;28;19922;-83
2022/09/12 12:29:03;;;;;;;;;;;31.20;50.00;;;;;;5080417;28;19979;-82
2022/09/12 12:31:29;;;;;;;;;;;31.50;50.30;;;;;;5079910;28;19932;-83
2022/09/12 12:34:00;;;;;;;;;;;31.40;48.70;;;;;;5081131;28;19920;-83
2022/09/12 12:36:35;;;;;;;;;;;31.50;48.50;;;;;;5083664;28;19995;-81
2022/09/12 12:39:27;;;;;;;;;;;31.40;47.30;;;;;;5083709;28;19917;-82
2022/09/12 12:41:52;;;;;;;;;;;31.40;47.70;;;;;;5052344;28;19916;-82
2022/09/12 12:44:37;;;;;;;;;;;31.60;49.40;;;;;;5075045;28;19970;-81
2022/09/12 12:47:20;;;;;;;;;;;31.70;49.10;;;;;;5076843;28;19956;-82
2022/09/12 12:50:05;;;;;;;;;;;31.50;48.80;;;;;;5057941;28;19928;-85
2022/09/12 12:52:56;;;;;;;;;;;31.90;49.10;;;;;;5074784;28;19920;-86
2022/09/12 12:55:34;;;;;;;;;;;32.20;47.70;;;;;;5045203;28;19927;-86
2022/09/12 12:58:29;;;;;;;;;;;32.20;47.10;;;;;;5053971;28;19917;-86
2022/09/12 13:01:23;;;;;;;;;;;32.40;47.30;;;;;;5089698;28;19970;-86
2022/09/12 13:04:14;;;;;;;;;;;32.60;45.60;;;;;;5074032;28;19931;-85
2022/09/12 13:06:47;;;;;;;;;;;32.90;46.80;;;;;;5066102;28;19920;-86
2022/09/12 13:09:42;;;;;;;;;;;32.80;44.20;;;;;;5052503;28;19917;-86
2022/09/12 13:12:46;;;;;;;;;;;32.40;44.70;;;;;;5067748;28;19916;-86
2022/09/12 13:15:30;;;;;;;;;;;32.40;45.50;;;;;;5032396;28;19931;-86
2022/09/12 13:18:12;;;;;;;;;;;32.60;44.70;;;;;;5077413;28;20010;-86
2022/09/12 13:21:00;;;;;;;;;;;32.30;44.50;;;;;;5063930;28;20285;-85
2022/09/12 13:23:42;;;;;;;;;;;32.20;45.40;;;;;;5073653;28;19986;-86
2022/09/12 13:26:22;;;;;;;;;;;32.20;46.00;;;;;;5056793;28;19921;-86
2022/09/12 13:35:46;;;;;;;;;;;31.90;45.10;;;;;;5087980;22;19930;-30
2022/09/12 13:38:23;;;;;;;;;;;32.20;47.80;;;;;;5062561;28;20006;-31
2022/09/12 13:41:19;;;;;;;;;;;32.20;45.20;;;;;;5064351;28;19920;-32
2022/09/12 13:43:46;;;;;;;;;;;32.50;44.00;;;;;;5076189;28;19924;-34
2022/09/12 13:46:15;;;;;;;;;;;32.20;45.30;;;;;;5092976;28;19916;-35
2022/09/12 13:48:41;;;;;;;;;;;32.00;43.10;;;;;;5070276;28;19916;-32
2022/09/12 13:51:11;;;;;;;;;;;32.10;44.50;;;;;;5071865;28;19923;-31
2022/09/12 13:53:43;;;;;;;;;;;32.30;45.60;;;;;;5060269;28;19916;-32
2022/09/12 13:56:14;;;;;;;;;;;32.70;44.60;;;;;;5091556;28;19970;-33
2022/09/12 13:58:49;;;;;;;;;;;33.00;45.90;;;;;;5065330;28;20381;-32
2022/09/12 14:01:15;;;;;;;;;;;32.90;43.90;;;;;;5054669;28;19916;-31
2022/09/12 14:06:48;;;;;;;;;;;32.80;46.30;;;;;;5081608;28;19917;-31
2022/09/12 14:09:16;;;;;;;;;;;32.60;45.00;;;;;;5070724;28;19920;-32
2022/09/12 14:11:42;;;;;;;;;;;32.40;42.60;;;;;;5051462;28;19924;-32
2022/09/12 14:14:17;;;;;;;;;;;32.50;47.20;;;;;;5074004;28;20376;-32
2022/09/12 14:16:43;;;;;;;;;;;32.70;46.20;;;;;;5079718;28;19923;-31
2022/09/12 14:19:11;;;;;;;;;;;32.20;46.10;;;;;;5062906;28;19916;-32
2022/09/12 14:21:37;;;;;;;;;;;32.00;44.60;;;;;;5074756;28;19916;-31
2022/09/12 14:24:05;;;;;;;;;;;31.70;46.10;;;;;;5097485;28;20360;-32
2022/09/12 14:26:36;;;;;;;;;;;31.60;45.70;;;;;;5076946;28;20379;-32
2022/09/12 14:29:06;;;;;;;;;;;31.60;46.30;;;;;;5074285;28;19962;-32
2022/09/12 14:31:34;;;;;;;;;;;32.00;46.00;;;;;;5083227;28;19916;-31
2022/09/12 14:34:20;;;;;;;;;;;31.80;45.00;;;;;;5058546;28;20469;-32
2022/09/12 14:36:50;;;;;;;;;;;31.60;44.20;;;;;;5053405;28;20338;-32
2022/09/12 14:39:30;;;;;;;;;;;31.40;44.80;;;;;;5063044;28;19916;-31
2022/09/12 14:42:01;;;;;;;;;;;31.50;45.00;;;;;;5078186;28;19956;-33
2022/09/12 14:44:27;;;;;;;;;;;31.30;44.30;;;;;;5082279;28;19916;-32